createdAt,value
2023-05-19T00:02:26.266Z,10.76
2023-05-19T00:04:58.189Z,10.74
2023-05-19T00:07:32.500Z,10.70
2023-05-19T00:10:04.057Z,10.67
2023-05-19T00:12:36.091Z,10.66
2023-05-19T00:15:14.569Z,10.64
2023-05-19T00:17:55.387Z,10.62
2023-05-19T00:20:26.125Z,10.59
2023-05-19T00:23:07.796Z,10.56
2023-05-19T00:25:40.691Z,10.54
2023-05-19T00:28:22.423Z,10.52
2023-05-19T00:30:56.677Z,10.50
2023-05-19T00:33:47.379Z,10.49
2023-05-19T00:36:23.485Z,10.45
2023-05-19T00:39:07.619Z,10.41
2023-05-19T00:41:39.122Z,10.37
2023-05-19T00:44:29.023Z,10.34
2023-05-19T00:47:02.261Z,10.30
2023-05-19T00:49:43.286Z,10.25
2023-05-19T00:52:16.998Z,10.22
2023-05-19T00:54:50.032Z,10.18
2023-05-19T00:57:33.493Z,10.17
2023-05-19T01:00:09.652Z,10.15
2023-05-19T01:02:40.716Z,10.15
2023-05-19T01:05:12.525Z,10.14
2023-05-19T01:07:47.166Z,10.12
2023-05-19T01:10:26.782Z,10.11
2023-05-19T01:13:03.203Z,10.09
2023-05-19T01:15:40.754Z,10.08
2023-05-19T01:18:27.268Z,10.08
2023-05-19T01:21:23.554Z,10.06
2023-05-19T01:24:03.811Z,10.04
2023-05-19T01:27:17.968Z,10.03
2023-05-19T01:33:04.723Z,10.01
2023-05-19T01:35:47.049Z,9.96
2023-05-19T01:38:41.124Z,9.96
2023-05-19T01:41:19.917Z,9.94
2023-05-19T01:44:10.942Z,9.91
2023-05-19T01:46:42.660Z,9.88
2023-05-19T01:49:14.776Z,9.88
2023-05-19T01:51:48.484Z,9.87
2023-05-19T01:54:30.500Z,9.85
2023-05-19T01:57:33.336Z,9.81
2023-05-19T02:00:24.374Z,9.78
2023-05-19T02:03:11.316Z,9.75
2023-05-19T02:05:59.462Z,9.73
2023-05-19T02:08:45.466Z,9.72
2023-05-19T02:11:24.249Z,9.72
2023-05-19T02:14:21.530Z,9.71
2023-05-19T02:17:14.176Z,9.71
2023-05-19T02:19:48.363Z,9.70
2023-05-19T02:22:30.094Z,9.68
2023-05-19T02:25:03.386Z,9.70
2023-05-19T02:27:45.013Z,9.72
2023-05-19T02:30:25.866Z,9.73
2023-05-19T02:33:16.544Z,9.72
2023-05-19T02:35:47.501Z,9.70
2023-05-19T02:38:38.223Z,9.66
2023-05-19T02:41:22.307Z,9.64
2023-05-19T02:44:01.988Z,9.62
2023-05-19T02:46:52.781Z,9.60
2023-05-19T02:49:23.343Z,9.58
2023-05-19T02:52:14.141Z,9.53
2023-05-19T02:54:47.357Z,9.48
2023-05-19T02:57:28.146Z,9.42
2023-05-19T03:00:13.149Z,9.36
2023-05-19T03:02:47.020Z,9.31
2023-05-19T03:05:18.484Z,9.26
2023-05-19T03:07:52.360Z,9.22
2023-05-19T03:10:23.021Z,9.18
2023-05-19T03:13:13.629Z,9.13
2023-05-19T03:15:45.155Z,9.09
2023-05-19T03:18:36.056Z,9.06
2023-05-19T03:21:19.185Z,9.02
2023-05-19T03:24:10.186Z,9.01
2023-05-19T03:27:00.871Z,8.99
2023-05-19T03:29:52.812Z,8.97
2023-05-19T03:32:43.880Z,8.93
2023-05-19T03:35:34.708Z,8.90
2023-05-19T03:38:05.373Z,8.88
2023-05-19T03:40:46.083Z,8.86
2023-05-19T03:43:36.849Z,8.83
2023-05-19T03:46:27.694Z,8.80
2023-05-19T03:49:24.333Z,8.78
2023-05-19T03:52:13.573Z,8.78
2023-05-19T03:54:58.743Z,8.78
2023-05-19T03:57:49.721Z,8.79
2023-05-19T04:00:20.882Z,8.80
2023-05-19T04:03:11.748Z,8.79
2023-05-19T04:05:44.518Z,8.80
2023-05-19T04:08:18.564Z,8.81
2023-05-19T04:10:52.630Z,8.81
2023-05-19T04:13:33.625Z,8.81
2023-05-19T04:16:09.958Z,8.83
2023-05-19T04:19:00.802Z,8.86
2023-05-19T04:21:51.509Z,8.92
2023-05-19T04:24:22.035Z,8.95
2023-05-19T04:26:56.271Z,8.97
2023-05-19T04:29:40.925Z,8.99
2023-05-19T04:32:31.710Z,9.02
2023-05-19T04:35:03.306Z,9.05
2023-05-19T04:37:40.614Z,9.07
2023-05-19T04:40:13.491Z,9.09
2023-05-19T04:42:49.920Z,9.11
2023-05-19T04:45:42.720Z,9.14
2023-05-19T04:48:33.599Z,9.17
2023-05-19T04:51:29.799Z,9.19
2023-05-19T04:54:19.746Z,9.21
2023-05-19T04:56:54.674Z,9.23
2023-05-19T04:59:46.359Z,9.26
2023-05-19T05:02:28.813Z,9.27
2023-05-19T05:05:19.742Z,9.30
2023-05-19T05:08:11.219Z,9.35
2023-05-19T05:10:44.752Z,9.40
2023-05-19T05:13:36.474Z,9.48
2023-05-19T05:16:29.798Z,9.57
2023-05-19T05:19:22.340Z,9.67
2023-05-19T05:21:58.680Z,9.75
2023-05-19T05:24:48.361Z,9.86
2023-05-19T05:27:24.296Z,9.94
2023-05-19T05:29:59.264Z,10.00
2023-05-19T05:32:32.514Z,10.08
2023-05-19T05:35:15.187Z,10.13
2023-05-19T05:37:56.926Z,10.20
2023-05-19T05:40:30.318Z,10.27
2023-05-19T05:43:03.523Z,10.33
2023-05-19T05:45:39.328Z,10.38
2023-05-19T05:48:13.649Z,10.45
2023-05-19T05:51:00.224Z,10.52
2023-05-19T05:53:41.792Z,10.57
2023-05-19T05:56:17.507Z,10.61
2023-05-19T05:58:54.078Z,10.66
2023-05-19T06:01:44.762Z,10.70
2023-05-19T06:04:18.779Z,10.75
2023-05-19T06:06:49.535Z,10.82
2023-05-19T06:09:40.189Z,10.91
2023-05-19T06:12:12.149Z,11.01
2023-05-19T06:14:46.922Z,11.15
2023-05-19T06:17:49.209Z,11.31
2023-05-19T06:20:23.040Z,11.49
2023-05-19T06:22:54.141Z,11.85
2023-05-19T06:25:28.083Z,12.10
2023-05-19T06:28:09.026Z,12.18
2023-05-19T06:31:00.177Z,12.28
2023-05-19T06:33:51.080Z,12.45
2023-05-19T06:36:24.513Z,12.60
2023-05-19T06:38:55.609Z,12.73
2023-05-19T06:41:26.496Z,12.84
2023-05-19T06:43:56.918Z,13.01
2023-05-19T06:46:27.555Z,13.17
2023-05-19T06:48:58.242Z,13.23
2023-05-19T06:51:41.406Z,13.27
2023-05-19T06:54:32.078Z,13.31
2023-05-19T06:57:02.826Z,13.39
2023-05-19T06:59:33.438Z,13.48
2023-05-19T07:02:04.883Z,13.54
2023-05-19T07:04:37.215Z,13.61
2023-05-19T07:07:18.989Z,13.66
2023-05-19T07:10:11.114Z,13.72
2023-05-19T07:13:02.004Z,13.74
2023-05-19T07:15:45.862Z,13.72
2023-05-19T07:18:16.477Z,13.72
2023-05-19T07:20:50.339Z,13.76
2023-05-19T07:23:21.041Z,13.83
2023-05-19T07:25:54.901Z,13.90
2023-05-19T07:28:28.683Z,13.97
2023-05-19T07:30:59.198Z,14.05
2023-05-19T07:33:51.118Z,14.12
2023-05-19T07:36:25.925Z,14.18
2023-05-19T07:38:56.499Z,14.29
2023-05-19T07:41:30.044Z,14.34
2023-05-19T07:44:00.650Z,14.40
2023-05-19T07:46:31.201Z,14.47
2023-05-19T07:49:04.222Z,14.54
2023-05-19T07:51:46.269Z,14.63
2023-05-19T07:54:16.719Z,14.71
2023-05-19T07:56:48.178Z,14.79
2023-05-19T07:59:18.805Z,14.86
2023-05-19T08:01:52.228Z,14.93
2023-05-19T08:04:23.091Z,15.01
2023-05-19T08:06:56.162Z,15.10
2023-05-19T08:09:26.706Z,15.16
2023-05-19T08:11:57.905Z,15.20
2023-05-19T08:14:37.482Z,15.28
2023-05-19T08:17:07.968Z,15.34
2023-05-19T08:19:40.934Z,15.39
2023-05-19T08:22:11.616Z,15.47
2023-05-19T08:24:43.189Z,15.57
2023-05-19T08:27:13.828Z,15.65
2023-05-19T08:29:44.519Z,15.70
2023-05-19T08:32:15.191Z,15.73
2023-05-19T08:34:45.745Z,15.77
2023-05-19T08:37:18.726Z,15.81
2023-05-19T08:39:49.437Z,15.86
2023-05-19T08:42:20.014Z,15.92
2023-05-19T08:44:50.560Z,16.01
2023-05-19T08:47:22.817Z,16.10
2023-05-19T08:49:58.687Z,16.20
2023-05-19T08:52:36.383Z,16.27
2023-05-19T08:55:17.176Z,16.37
2023-05-19T08:57:47.785Z,16.43
2023-05-19T09:00:19.917Z,16.45
2023-05-19T09:03:01.046Z,16.47
2023-05-19T09:05:42.364Z,16.50
2023-05-19T09:08:12.922Z,16.55
2023-05-19T09:10:43.498Z,16.65
2023-05-19T09:13:14.010Z,16.77
2023-05-19T09:15:45.581Z,16.86
2023-05-19T09:18:16.632Z,16.91
2023-05-19T09:20:47.689Z,17.01
2023-05-19T09:23:19.051Z,17.08
2023-05-19T09:25:54.017Z,17.22
2023-05-19T09:28:29.534Z,17.32
2023-05-19T09:31:04.167Z,17.38
2023-05-19T09:33:36.795Z,17.47
2023-05-19T09:36:08.868Z,17.57
2023-05-19T09:38:40.369Z,17.67
2023-05-19T09:41:11.634Z,17.76
2023-05-19T09:43:42.174Z,17.83
2023-05-19T09:46:14.629Z,17.85
2023-05-19T09:48:45.382Z,17.97
2023-05-19T09:51:16.066Z,18.19
2023-05-19T09:53:49.315Z,18.39
2023-05-19T09:56:23.801Z,18.59
2023-05-19T09:58:54.556Z,18.85
2023-05-19T10:01:25.981Z,19.08
2023-05-19T10:03:57.010Z,19.27
2023-05-19T10:06:27.958Z,19.47
2023-05-19T10:08:57.703Z,19.63
2023-05-19T10:11:28.889Z,20.05
2023-05-19T10:13:59.420Z,20.58
2023-05-19T10:16:31.398Z,20.94
2023-05-19T10:19:03.323Z,21.29
2023-05-19T10:21:33.873Z,21.46
2023-05-19T10:24:04.437Z,21.51
2023-05-19T10:26:35.290Z,21.71
2023-05-19T10:29:04.901Z,21.89
2023-05-19T10:31:37.454Z,22.07
2023-05-19T10:34:28.352Z,22.28
2023-05-19T10:37:09.287Z,22.52
2023-05-19T10:39:42.610Z,22.76
2023-05-19T10:42:18.252Z,22.90
2023-05-19T10:45:03.802Z,23.19
2023-05-19T10:47:35.054Z,23.40
2023-05-19T10:50:09.502Z,23.47
2023-05-19T10:52:41.442Z,23.37
2023-05-19T10:55:15.594Z,23.40
2023-05-19T10:57:57.604Z,23.48
2023-05-19T11:00:32.459Z,23.45
2023-05-19T11:03:16.551Z,23.41
2023-05-19T11:05:50.092Z,23.62
2023-05-19T11:08:36.412Z,23.85
2023-05-19T11:11:17.802Z,23.73
2023-05-19T11:13:55.114Z,23.41
2023-05-19T11:16:33.280Z,23.33
2023-05-19T11:19:03.999Z,23.19
2023-05-19T11:21:46.814Z,23.07
2023-05-19T11:24:36.202Z,23.03
2023-05-19T11:27:26.050Z,22.91
2023-05-19T11:29:59.291Z,22.85
2023-05-19T11:32:31.607Z,23.00
2023-05-19T11:35:03.413Z,22.92
2023-05-19T11:37:35.958Z,22.73
2023-05-19T11:40:08.775Z,22.48
2023-05-19T11:42:39.284Z,22.27
2023-05-19T11:45:12.904Z,22.26
2023-05-19T11:48:00.893Z,22.35
2023-05-19T11:50:33.588Z,22.25
2023-05-19T11:53:04.119Z,22.24
2023-05-19T11:55:33.580Z,22.21
2023-05-19T11:58:05.987Z,22.18
2023-05-19T12:00:46.049Z,22.18
2023-05-19T12:03:17.524Z,22.31
2023-05-19T12:05:50.702Z,22.59
2023-05-19T12:08:21.517Z,22.55
2023-05-19T12:10:53.993Z,22.38
2023-05-19T12:13:24.511Z,22.29
2023-05-19T12:15:56.106Z,22.20
2023-05-19T12:18:32.685Z,22.26
2023-05-19T12:21:03.255Z,22.31
2023-05-19T12:23:34.432Z,22.18
2023-05-19T12:26:05.252Z,22.07
2023-05-19T12:28:36.349Z,22.05
2023-05-19T12:31:07.039Z,21.97
2023-05-19T12:33:37.404Z,21.89
2023-05-19T12:36:10.662Z,21.72
2023-05-19T12:38:42.452Z,21.44
2023-05-19T12:41:15.104Z,21.02
2023-05-19T12:43:45.611Z,20.66
2023-05-19T12:46:17.386Z,20.53
2023-05-19T12:48:48.861Z,20.48
2023-05-19T12:51:22.691Z,20.39
2023-05-19T12:53:53.911Z,20.30
2023-05-19T12:56:27.062Z,20.16
2023-05-19T12:58:57.668Z,20.08
2023-05-19T13:01:30.695Z,20.07
2023-05-19T13:04:02.788Z,20.21
2023-05-19T13:06:38.343Z,20.43
2023-05-19T13:09:09.025Z,20.49
2023-05-19T13:11:40.437Z,20.60
2023-05-19T13:14:11.340Z,20.98
2023-05-19T13:16:42.628Z,21.46
2023-05-19T13:19:25.011Z,21.60
2023-05-19T13:21:56.039Z,21.83
2023-05-19T13:24:26.570Z,22.18
2023-05-19T13:26:56.933Z,22.39
2023-05-19T13:29:28.258Z,22.53
2023-05-19T13:32:01.129Z,22.53
2023-05-19T13:34:32.034Z,22.79
2023-05-19T13:37:02.577Z,22.91
2023-05-19T13:39:33.118Z,23.13
2023-05-19T13:42:04.847Z,23.23
2023-05-19T13:44:35.383Z,23.02
2023-05-19T13:47:06.086Z,22.84
2023-05-19T13:49:36.514Z,22.70
2023-05-19T13:52:08.013Z,22.61
2023-05-19T13:54:38.403Z,22.49
2023-05-19T13:57:09.010Z,22.32
2023-05-19T13:59:49.353Z,22.00
2023-05-19T14:02:28.138Z,21.60
2023-05-19T14:04:58.803Z,21.35
2023-05-19T14:07:29.317Z,21.15
2023-05-19T14:09:59.696Z,21.01
2023-05-19T14:12:43.156Z,20.89
2023-05-19T14:15:22.360Z,20.68
2023-05-19T14:17:53.438Z,20.69
2023-05-19T14:20:23.926Z,20.68
2023-05-19T14:22:55.464Z,20.57
2023-05-19T14:25:25.876Z,20.49
2023-05-19T14:27:56.274Z,20.44
2023-05-19T14:30:26.679Z,20.40
2023-05-19T14:32:57.170Z,20.30
2023-05-19T14:35:28.879Z,20.10
2023-05-19T14:37:59.182Z,19.83
2023-05-19T14:40:29.552Z,19.70
2023-05-19T14:43:00.560Z,19.58
2023-05-19T14:45:31.352Z,19.55
2023-05-19T14:48:01.920Z,19.56
2023-05-19T14:50:32.550Z,19.55
2023-05-19T14:53:03.324Z,19.47
2023-05-19T14:55:33.749Z,19.40
2023-05-19T14:58:10.200Z,19.30
2023-05-19T15:00:51.441Z,19.25
2023-05-19T15:03:23.321Z,19.20
2023-05-19T15:05:53.792Z,19.05
2023-05-19T15:08:24.528Z,19.00
2023-05-19T15:10:54.944Z,18.98
2023-05-19T15:13:26.435Z,18.96
2023-05-19T15:16:12.324Z,18.95
2023-05-19T15:18:47.024Z,18.99
2023-05-19T15:21:17.617Z,19.00
2023-05-19T15:23:48.193Z,19.03
2023-05-19T15:26:18.853Z,18.99
2023-05-19T15:28:49.254Z,18.88
2023-05-19T15:31:23.132Z,18.87
2023-05-19T15:33:53.777Z,18.91
2023-05-19T15:36:24.354Z,18.96
2023-05-19T15:38:54.734Z,19.00
2023-05-19T15:41:25.777Z,19.02
2023-05-19T15:43:54.728Z,19.07
2023-05-19T15:46:25.172Z,19.08
2023-05-19T15:48:56.532Z,19.10
2023-05-19T15:51:27.708Z,19.07
2023-05-19T15:53:56.614Z,19.00
2023-05-19T15:56:27.184Z,18.95
2023-05-19T15:58:57.792Z,18.92
2023-05-19T16:01:28.579Z,18.87
2023-05-19T16:04:00.513Z,18.84
2023-05-19T16:06:31.195Z,18.85
2023-05-19T16:09:01.760Z,18.85
2023-05-19T16:11:32.557Z,18.87
2023-05-19T16:14:03.000Z,18.87
2023-05-19T16:16:33.532Z,18.83
2023-05-19T16:19:04.121Z,18.80
2023-05-19T16:21:34.653Z,18.78
2023-05-19T16:24:05.285Z,18.71
2023-05-19T16:26:35.680Z,18.66
2023-05-19T16:29:06.160Z,18.57
2023-05-19T16:31:36.698Z,18.46
2023-05-19T16:34:07.248Z,18.39
2023-05-19T16:36:37.696Z,18.33
2023-05-19T16:39:08.398Z,18.28
2023-05-19T16:41:41.583Z,18.24
2023-05-19T16:44:14.496Z,18.22
2023-05-19T16:46:45.208Z,18.17
2023-05-19T16:49:15.762Z,18.13
2023-05-19T16:51:49.118Z,18.08
2023-05-19T16:54:19.633Z,18.06
2023-05-19T16:56:50.866Z,18.06
2023-05-19T16:59:19.984Z,18.06
2023-05-19T17:01:50.409Z,18.06
2023-05-19T17:04:21.042Z,18.08
2023-05-19T17:06:51.566Z,18.10
2023-05-19T17:09:25.366Z,18.14
2023-05-19T17:11:56.333Z,18.17
2023-05-19T17:14:26.863Z,18.19
2023-05-19T17:16:57.493Z,18.19
2023-05-19T17:19:28.044Z,18.19
2023-05-19T17:21:58.577Z,18.20
2023-05-19T17:24:29.551Z,18.23
2023-05-19T17:26:59.968Z,18.24
2023-05-19T17:29:30.748Z,18.23
2023-05-19T17:32:01.321Z,18.23
2023-05-19T17:34:31.788Z,18.21
2023-05-19T17:37:02.485Z,18.17
2023-05-19T17:39:33.186Z,18.16
2023-05-19T17:42:03.722Z,18.13
2023-05-19T17:44:34.166Z,18.09
2023-05-19T17:47:05.240Z,18.05
2023-05-19T17:49:35.762Z,18.01
2023-05-19T17:52:07.468Z,17.98
2023-05-19T17:54:38.844Z,17.97
2023-05-19T17:57:16.874Z,17.94
2023-05-19T17:59:48.040Z,17.90
2023-05-19T18:02:18.681Z,17.86
2023-05-19T18:04:50.091Z,17.82
2023-05-19T18:07:20.922Z,17.79
2023-05-19T18:09:56.290Z,17.76
2023-05-19T18:12:26.742Z,17.72
2023-05-19T18:14:57.242Z,17.69
2023-05-19T18:17:27.898Z,17.67
2023-05-19T18:19:58.341Z,17.63
2023-05-19T18:22:28.885Z,17.59
2023-05-19T18:24:59.347Z,17.55
2023-05-19T18:27:31.372Z,17.52
2023-05-19T18:30:01.984Z,17.49
2023-05-19T18:32:32.400Z,17.45
2023-05-19T18:35:03.057Z,17.41
2023-05-19T18:37:33.474Z,17.37
2023-05-19T18:40:04.089Z,17.32
2023-05-19T18:42:34.629Z,17.27
2023-05-19T18:45:06.288Z,17.23
2023-05-19T18:47:36.846Z,17.19
2023-05-19T18:50:09.330Z,17.13
2023-05-19T18:52:39.786Z,17.05
2023-05-19T18:55:11.556Z,16.98
2023-05-19T18:57:42.066Z,16.91
2023-05-19T19:00:14.675Z,16.84
2023-05-19T19:02:45.138Z,16.76
2023-05-19T19:05:15.719Z,16.68
2023-05-19T19:07:56.344Z,16.60
2023-05-19T19:10:27.059Z,16.53
2023-05-19T19:12:57.948Z,16.46
2023-05-19T19:15:28.660Z,16.38
2023-05-19T19:17:59.134Z,16.31
2023-05-19T19:20:29.813Z,16.24
2023-05-19T19:23:06.403Z,16.16
2023-05-19T19:25:37.601Z,16.09
2023-05-19T19:28:08.202Z,16.01
2023-05-19T19:30:49.986Z,15.93
2023-05-19T19:33:20.479Z,15.85
2023-05-19T19:35:51.053Z,15.79
2023-05-19T19:38:21.721Z,15.69
2023-05-19T19:40:54.533Z,15.59
2023-05-19T19:43:35.561Z,15.48
2023-05-19T19:46:09.364Z,15.37
2023-05-19T19:48:42.382Z,15.26
2023-05-19T19:51:12.992Z,15.13
2023-05-19T19:53:46.536Z,15.00
2023-05-19T19:56:17.057Z,14.88
2023-05-19T19:58:47.724Z,14.77
2023-05-19T20:01:20.269Z,14.65
2023-05-19T20:03:51.003Z,14.53
2023-05-19T20:06:29.247Z,14.42
2023-05-19T20:08:59.707Z,14.32
2023-05-19T20:11:30.120Z,14.24
2023-05-19T20:14:00.764Z,14.15
2023-05-19T20:16:33.867Z,14.06
2023-05-19T20:19:09.158Z,13.98
2023-05-19T20:21:40.125Z,13.92
2023-05-19T20:24:11.049Z,13.85
2023-05-19T20:26:41.741Z,13.79
2023-05-19T20:29:12.442Z,13.73
2023-05-19T20:31:43.069Z,13.69
2023-05-19T20:34:16.068Z,13.64
2023-05-19T20:36:48.996Z,13.60
2023-05-19T20:39:19.520Z,13.56
2023-05-19T20:41:49.918Z,13.53
2023-05-19T20:44:25.828Z,13.52
2023-05-19T20:46:58.759Z,13.50
2023-05-19T20:49:29.390Z,13.50
2023-05-19T20:52:00.631Z,13.52
2023-05-19T20:54:31.078Z,13.52
2023-05-19T20:57:06.424Z,13.52
2023-05-19T20:59:57.084Z,13.52
2023-05-19T21:02:27.641Z,13.49
2023-05-19T21:04:58.211Z,13.46
2023-05-19T21:07:31.592Z,13.43
2023-05-19T21:10:02.108Z,13.41
2023-05-19T21:12:35.469Z,13.41
2023-05-19T21:15:07.845Z,13.40
2023-05-19T21:17:38.333Z,13.40
2023-05-19T21:20:11.510Z,13.40
2023-05-19T21:22:49.419Z,13.36
2023-05-19T21:25:19.913Z,13.31
2023-05-19T21:27:52.967Z,13.26
2023-05-19T21:30:24.002Z,13.22
2023-05-19T21:32:54.532Z,13.17
2023-05-19T21:35:25.008Z,13.12
2023-05-19T21:38:00.669Z,13.06
2023-05-19T21:40:40.227Z,13.03
2023-05-19T21:43:11.058Z,13.02
2023-05-19T21:45:44.244Z,12.99
2023-05-19T21:48:14.797Z,12.99
2023-05-19T21:50:45.407Z,13.01
2023-05-19T21:53:16.163Z,13.03
2023-05-19T21:55:49.899Z,13.02
2023-05-19T21:58:20.517Z,13.00
2023-05-19T22:00:56.002Z,12.98
2023-05-19T22:03:26.768Z,12.96
2023-05-19T22:05:57.837Z,12.94
2023-05-19T22:08:28.400Z,12.93
2023-05-19T22:10:59.108Z,12.96
2023-05-19T22:13:30.235Z,12.95
2023-05-19T22:16:00.725Z,12.95
2023-05-19T22:18:31.462Z,12.95
2023-05-19T22:21:02.179Z,12.94
2023-05-19T22:23:36.690Z,12.94
2023-05-19T22:26:09.451Z,12.94
2023-05-19T22:28:40.051Z,12.93
2023-05-19T22:31:13.973Z,12.92
2023-05-19T22:33:58.290Z,12.89
2023-05-19T22:36:29.153Z,12.90
2023-05-19T22:38:59.747Z,12.91
2023-05-19T22:41:30.327Z,12.93
2023-05-19T22:44:00.767Z,12.93
2023-05-19T22:46:35.418Z,12.92
2023-05-19T22:49:06.105Z,12.89
2023-05-19T22:51:36.548Z,12.88
2023-05-19T22:54:07.832Z,12.86
2023-05-19T22:56:38.338Z,12.83
2023-05-19T22:59:09.020Z,12.81
2023-05-19T23:01:39.812Z,12.81
2023-05-19T23:04:21.942Z,12.77
2023-05-19T23:06:53.135Z,12.73
2023-05-19T23:09:23.778Z,12.69
2023-05-19T23:11:56.505Z,12.65
2023-05-19T23:14:27.150Z,12.61
2023-05-19T23:16:57.760Z,12.55
2023-05-19T23:19:29.139Z,12.49
2023-05-19T23:22:02.430Z,12.43
2023-05-19T23:24:35.428Z,12.37
2023-05-19T23:27:06.868Z,12.33
2023-05-19T23:29:36.021Z,12.30
2023-05-19T23:32:07.405Z,12.26
2023-05-19T23:34:37.877Z,12.20
2023-05-19T23:37:18.657Z,12.15
2023-05-19T23:39:49.097Z,12.11
2023-05-19T23:42:22.092Z,12.06
2023-05-19T23:44:59.815Z,12.00
2023-05-19T23:47:32.786Z,11.96
2023-05-19T23:50:03.274Z,11.93
2023-05-19T23:52:33.783Z,11.92
2023-05-19T23:55:04.474Z,11.91
2023-05-19T23:57:35.065Z,11.91
